createdAt,value
2022-09-06T00:01:39.356Z,19.54
2022-09-06T00:04:08.118Z,19.59
2022-09-06T00:06:36.761Z,19.50
2022-09-06T00:09:03.972Z,19.41
2022-09-06T00:11:30.829Z,19.50
2022-09-06T00:13:57.632Z,19.53
2022-09-06T00:16:30.170Z,19.33
2022-09-06T00:18:57.787Z,19.57
2022-09-06T00:21:29.126Z,19.56
2022-09-06T00:23:56.190Z,19.62
2022-09-06T00:26:23.674Z,19.58
2022-09-06T00:28:50.547Z,19.12
2022-09-06T00:31:24.721Z,19.33
2022-09-06T00:33:51.815Z,19.48
2022-09-06T00:36:20.949Z,19.42
2022-09-06T00:38:48.079Z,19.42
2022-09-06T00:41:16.588Z,19.41
2022-09-06T00:43:44.204Z,19.11
2022-09-06T00:46:18.373Z,19.15
2022-09-06T00:48:47.458Z,19.24
2022-09-06T00:51:16.838Z,18.86
2022-09-06T00:53:43.797Z,18.90
2022-09-06T00:56:11.121Z,18.79
2022-09-06T00:58:38.200Z,19.10
2022-09-06T01:01:06.675Z,19.13
2022-09-06T01:03:33.967Z,19.13
2022-09-06T01:06:09.631Z,19.19
2022-09-06T01:09:17.155Z,19.15
2022-09-06T01:12:08.531Z,19.14
2022-09-06T01:14:52.150Z,19.04
2022-09-06T01:18:19.619Z,19.10
2022-09-06T01:21:03.749Z,19.11
2022-09-06T01:24:10.893Z,19.14
2022-09-06T01:27:06.301Z,19.11
2022-09-06T01:30:06.707Z,18.90
2022-09-06T01:33:06.328Z,19.05
2022-09-06T01:35:44.320Z,18.86
2022-09-06T01:38:11.248Z,19.03
2022-09-06T01:40:38.057Z,18.97
2022-09-06T01:43:11.191Z,19.07
2022-09-06T01:46:13.089Z,19.04
2022-09-06T01:49:10.435Z,18.98
2022-09-06T01:51:57.209Z,18.90
2022-09-06T01:54:57.865Z,18.94
2022-09-06T01:58:07.984Z,18.95
2022-09-06T02:01:04.388Z,18.91
2022-09-06T02:03:52.265Z,18.76
2022-09-06T02:06:29.113Z,18.95
2022-09-06T02:09:09.153Z,18.92
2022-09-06T02:12:00.233Z,18.76
2022-09-06T02:14:36.222Z,18.66
2022-09-06T02:17:05.129Z,18.80
2022-09-06T02:19:45.498Z,18.84
2022-09-06T02:22:18.969Z,18.82
2022-09-06T02:24:47.670Z,18.80
2022-09-06T02:27:14.626Z,18.69
2022-09-06T02:29:42.179Z,18.73
2022-09-06T02:32:30.083Z,18.76
2022-09-06T02:34:57.909Z,18.58
2022-09-06T02:37:26.227Z,18.62
2022-09-06T02:39:55.355Z,18.70
2022-09-06T02:42:23.193Z,18.57
2022-09-06T02:44:50.020Z,18.51
2022-09-06T02:47:16.876Z,18.41
2022-09-06T02:49:43.695Z,18.51
2022-09-06T02:52:10.723Z,18.50
2022-09-06T02:54:37.539Z,18.62
2022-09-06T02:57:04.419Z,18.60
2022-09-06T02:59:31.237Z,18.67
2022-09-06T03:01:58.094Z,18.74
2022-09-06T03:04:25.005Z,18.83
2022-09-06T03:06:51.842Z,18.87
2022-09-06T03:09:18.710Z,18.80
2022-09-06T03:11:45.524Z,18.69
2022-09-06T03:14:12.371Z,18.78
2022-09-06T03:16:39.231Z,18.84
2022-09-06T03:19:06.220Z,18.87
2022-09-06T03:21:33.062Z,18.86
2022-09-06T03:23:59.902Z,18.73
2022-09-06T03:26:28.142Z,18.97
2022-09-06T03:28:54.996Z,18.85
2022-09-06T03:31:21.818Z,18.72
2022-09-06T03:33:48.856Z,18.92
2022-09-06T03:36:15.848Z,18.76
2022-09-06T03:38:42.682Z,18.92
2022-09-06T03:41:09.572Z,18.89
2022-09-06T03:43:36.602Z,18.87
2022-09-06T03:46:03.553Z,18.88
2022-09-06T03:48:30.718Z,18.85
2022-09-06T03:50:59.418Z,18.90
2022-09-06T03:53:28.418Z,18.85
2022-09-06T03:55:58.131Z,18.94
2022-09-06T03:58:30.200Z,18.76
2022-09-06T04:01:11.741Z,18.86
2022-09-06T04:03:39.770Z,18.97
2022-09-06T04:06:07.562Z,18.83
2022-09-06T04:08:35.553Z,19.00
2022-09-06T04:11:02.593Z,19.00
2022-09-06T04:13:32.123Z,18.90
2022-09-06T04:15:59.707Z,18.92
2022-09-06T04:18:27.092Z,18.91
2022-09-06T04:20:58.210Z,18.83
2022-09-06T04:23:28.323Z,18.81
2022-09-06T04:25:57.977Z,18.87
2022-09-06T04:28:26.596Z,18.83
2022-09-06T04:31:04.966Z,18.95
2022-09-06T04:33:35.001Z,18.79
2022-09-06T04:36:05.818Z,18.83
2022-09-06T04:38:43.158Z,18.84
2022-09-06T04:41:13.873Z,19.00
2022-09-06T04:43:40.816Z,19.02
2022-09-06T04:46:19.090Z,18.91
2022-09-06T04:48:46.799Z,18.67
2022-09-06T04:51:13.638Z,18.62
2022-09-06T04:53:40.607Z,18.73
2022-09-06T04:56:07.559Z,18.63
2022-09-06T04:58:34.450Z,18.84
2022-09-06T05:01:01.325Z,18.81
2022-09-06T05:03:28.258Z,18.70
2022-09-06T05:06:08.088Z,18.72
2022-09-06T05:08:41.163Z,18.64
2022-09-06T05:11:09.048Z,18.78
2022-09-06T05:13:35.877Z,18.79
2022-09-06T05:16:05.056Z,18.81
2022-09-06T05:18:32.239Z,18.83
2022-09-06T05:20:59.310Z,18.76
2022-09-06T05:23:26.760Z,18.68
2022-09-06T05:25:54.377Z,18.69
2022-09-06T05:28:21.555Z,18.86
2022-09-06T05:30:48.381Z,18.87
2022-09-06T05:33:22.104Z,18.91
2022-09-06T05:35:49.582Z,18.84
2022-09-06T05:38:16.653Z,18.91
2022-09-06T05:40:43.605Z,18.73
2022-09-06T05:43:10.415Z,18.87
2022-09-06T05:45:37.294Z,18.89
2022-09-06T05:48:04.427Z,18.85
2022-09-06T05:50:31.282Z,18.64
2022-09-06T05:52:58.114Z,18.84
2022-09-06T05:55:24.973Z,19.00
2022-09-06T05:57:51.789Z,19.00
2022-09-06T06:00:18.742Z,18.92
2022-09-06T06:02:48.727Z,18.94
2022-09-06T06:05:16.514Z,19.01
2022-09-06T06:07:43.355Z,18.94
2022-09-06T06:10:10.716Z,18.95
2022-09-06T06:12:37.569Z,18.96
2022-09-06T06:15:05.717Z,19.12
2022-09-06T06:17:32.883Z,19.10
2022-09-06T06:19:59.716Z,19.16
2022-09-06T06:22:26.516Z,19.16
2022-09-06T06:24:53.390Z,19.19
2022-09-06T06:27:20.235Z,19.23
2022-09-06T06:29:47.170Z,19.17
2022-09-06T06:32:13.988Z,19.27
2022-09-06T06:34:41.701Z,19.30
2022-09-06T06:37:08.606Z,19.33
2022-09-06T06:39:35.521Z,19.30
2022-09-06T06:42:02.479Z,19.37
2022-09-06T06:44:29.321Z,19.31
2022-09-06T06:46:57.960Z,19.24
2022-09-06T06:49:25.875Z,19.30
2022-09-06T06:51:53.049Z,19.27
2022-09-06T06:54:19.938Z,19.34
2022-09-06T06:56:46.983Z,19.21
2022-09-06T06:59:14.452Z,19.27
2022-09-06T07:01:41.404Z,19.38
2022-09-06T07:04:10.409Z,19.25
2022-09-06T07:12:26.170Z,19.36
2022-09-06T07:14:53.263Z,19.31
2022-09-06T07:17:20.131Z,19.38
2022-09-06T07:22:33.885Z,19.49
2022-09-06T07:25:01.161Z,19.59
2022-09-06T07:30:15.650Z,19.55
2022-09-06T07:32:42.469Z,19.66
2022-09-06T07:35:09.675Z,19.59
2022-09-06T07:37:36.489Z,19.69
2022-09-06T07:40:04.810Z,19.60
2022-09-06T07:42:36.158Z,19.67
2022-09-06T07:45:04.867Z,19.63
2022-09-06T07:53:13.135Z,19.89
2022-09-06T07:55:44.436Z,19.81
2022-09-06T07:58:11.244Z,19.77
2022-09-06T08:00:40.956Z,19.96
2022-09-06T08:03:07.982Z,19.90
2022-09-06T08:11:08.573Z,19.94
2022-09-06T08:13:36.718Z,20.19
2022-09-06T08:16:09.694Z,20.14
2022-09-06T08:18:37.760Z,20.29
2022-09-06T08:21:12.739Z,20.32
2022-09-06T08:23:44.467Z,20.37
2022-09-06T08:26:11.912Z,20.35
2022-09-06T08:28:38.778Z,20.32
2022-09-06T08:31:17.380Z,20.52
2022-09-06T08:33:44.607Z,20.50
2022-09-06T08:36:12.147Z,20.45
2022-09-06T08:38:39.119Z,20.58
2022-09-06T08:41:16.806Z,20.61
2022-09-06T08:47:04.446Z,20.69
2022-09-06T08:49:37.692Z,20.64
2022-09-06T08:52:35.495Z,20.66
2022-09-06T08:55:29.528Z,20.85
2022-09-06T08:58:26.411Z,20.90
2022-09-06T09:01:03.621Z,20.91
2022-09-06T09:03:39.524Z,20.97
2022-09-06T09:06:10.022Z,20.97
2022-09-06T09:08:55.664Z,21.14
2022-09-06T09:11:25.530Z,21.13
2022-09-06T09:14:28.093Z,21.32
2022-09-06T09:17:20.436Z,21.45
2022-09-06T09:19:47.465Z,21.58
2022-09-06T09:22:19.457Z,21.54
2022-09-06T09:24:48.625Z,21.84
2022-09-06T09:27:25.928Z,21.85
2022-09-06T09:32:45.214Z,21.88
2022-09-06T09:35:33.159Z,21.95
2022-09-06T09:38:12.857Z,22.09
2022-09-06T09:40:50.051Z,22.17
2022-09-06T09:43:25.188Z,22.22
2022-09-06T09:46:24.087Z,22.25
2022-09-06T09:49:11.025Z,22.23
2022-09-06T09:52:05.397Z,22.36
2022-09-06T09:54:37.031Z,22.41
2022-09-06T09:57:12.118Z,22.49
2022-09-06T09:59:58.237Z,22.35
2022-09-06T10:02:30.887Z,22.52
2022-09-06T10:05:08.044Z,22.79
2022-09-06T10:07:42.861Z,22.77
2022-09-06T10:10:27.575Z,23.23
2022-09-06T10:13:29.515Z,23.27
2022-09-06T10:15:58.981Z,23.41
2022-09-06T10:18:42.874Z,23.43
2022-09-06T10:21:14.627Z,23.67
2022-09-06T10:24:26.976Z,24.03
2022-09-06T10:26:59.933Z,24.32
2022-09-06T10:29:42.706Z,24.58
2022-09-06T10:32:34.723Z,24.91
2022-09-06T10:35:16.400Z,25.22
2022-09-06T10:37:50.032Z,25.16
2022-09-06T10:41:02.956Z,25.21
2022-09-06T10:43:43.137Z,25.40
2022-09-06T10:46:18.679Z,25.59
2022-09-06T10:48:46.376Z,25.70
2022-09-06T10:51:44.012Z,25.76
2022-09-06T10:54:13.845Z,25.92
2022-09-06T10:57:05.119Z,25.99
2022-09-06T11:00:14.447Z,26.22
2022-09-06T11:05:54.479Z,26.01
2022-09-06T11:08:53.469Z,26.20
2022-09-06T11:11:41.541Z,26.16
2022-09-06T11:14:13.520Z,26.25
2022-09-06T11:16:59.034Z,26.18
2022-09-06T11:19:45.706Z,26.38
2022-09-06T11:22:33.049Z,26.61
2022-09-06T11:25:46.682Z,26.72
2022-09-06T11:28:38.638Z,26.65
2022-09-06T11:34:30.590Z,26.56
2022-09-06T11:36:59.196Z,26.65
2022-09-06T11:42:47.772Z,26.79
2022-09-06T11:45:39.050Z,26.74
2022-09-06T11:48:24.188Z,26.82
2022-09-06T11:50:53.825Z,26.83
2022-09-06T11:53:34.463Z,26.75
2022-09-06T11:56:01.178Z,26.82
2022-09-06T11:58:59.719Z,26.97
2022-09-06T12:01:26.474Z,27.04
2022-09-06T12:04:09.752Z,27.00
2022-09-06T12:06:44.233Z,26.92
2022-09-06T12:09:33.036Z,26.99
2022-09-06T12:12:01.440Z,27.17
2022-09-06T12:14:34.512Z,27.26
2022-09-06T12:17:01.570Z,27.58
2022-09-06T12:20:06.183Z,27.56
2022-09-06T12:22:32.910Z,27.42
2022-09-06T12:25:29.520Z,27.14
2022-09-06T12:28:05.464Z,27.20
2022-09-06T12:30:42.951Z,27.26
2022-09-06T12:33:30.745Z,27.31
2022-09-06T12:36:23.652Z,27.28
2022-09-06T12:39:14.564Z,27.60
2022-09-06T12:41:50.348Z,27.60
2022-09-06T12:44:24.437Z,27.43
2022-09-06T12:46:52.055Z,27.45
2022-09-06T12:49:22.372Z,27.55
2022-09-06T12:51:49.754Z,27.83
2022-09-06T12:54:26.462Z,27.46
2022-09-06T12:57:11.957Z,27.57
2022-09-06T12:59:47.769Z,27.46
2022-09-06T13:02:22.442Z,27.53
2022-09-06T13:05:05.354Z,27.78
2022-09-06T13:07:35.338Z,27.54
2022-09-06T13:10:04.265Z,27.30
2022-09-06T13:12:39.504Z,27.40
2022-09-06T13:15:19.615Z,27.51
2022-09-06T13:17:46.737Z,27.51
2022-09-06T13:20:24.300Z,27.75
2022-09-06T13:22:52.302Z,27.60
2022-09-06T13:25:22.114Z,27.42
2022-09-06T13:27:51.631Z,27.32
2022-09-06T13:30:43.225Z,27.51
2022-09-06T13:33:26.223Z,27.41
2022-09-06T13:36:12.229Z,27.55
2022-09-06T13:38:38.925Z,27.56
2022-09-06T13:41:27.780Z,27.53
2022-09-06T13:44:11.310Z,27.49
2022-09-06T13:46:38.562Z,27.01
2022-09-06T13:49:06.127Z,27.44
2022-09-06T13:51:34.051Z,27.47
2022-09-06T13:54:15.582Z,27.38
2022-09-06T13:56:44.700Z,27.28
2022-09-06T13:59:12.477Z,26.87
2022-09-06T14:01:45.220Z,27.40
2022-09-06T14:04:21.289Z,27.26
2022-09-06T14:06:49.192Z,27.29
2022-09-06T14:09:16.049Z,27.17
2022-09-06T14:11:47.524Z,27.06
2022-09-06T14:14:16.667Z,26.97
2022-09-06T14:16:44.309Z,27.11
2022-09-06T14:19:11.391Z,27.01
2022-09-06T14:21:38.695Z,27.17
2022-09-06T14:24:06.581Z,26.78
2022-09-06T14:26:35.742Z,27.21
2022-09-06T14:29:03.160Z,26.99
2022-09-06T14:31:32.717Z,27.12
2022-09-06T14:34:01.199Z,26.94
2022-09-06T14:36:31.495Z,26.89
2022-09-06T14:38:59.930Z,27.08
2022-09-06T14:41:27.386Z,27.03
2022-09-06T14:43:57.270Z,27.03
2022-09-06T14:46:26.303Z,27.23
2022-09-06T14:49:09.906Z,27.10
2022-09-06T14:51:38.561Z,27.17
2022-09-06T14:54:10.063Z,26.97
2022-09-06T14:56:39.910Z,26.92
2022-09-06T14:59:09.107Z,27.06
2022-09-06T15:01:38.650Z,27.17
2022-09-06T15:04:09.180Z,27.01
2022-09-06T15:06:39.103Z,27.11
2022-09-06T15:09:07.848Z,26.72
2022-09-06T15:11:39.329Z,27.02
2022-09-06T15:14:20.046Z,26.87
2022-09-06T15:16:53.477Z,26.99
2022-09-06T15:19:28.217Z,26.99
2022-09-06T15:21:57.228Z,26.60
2022-09-06T15:24:24.658Z,27.01
2022-09-06T15:26:51.923Z,27.11
2022-09-06T15:29:19.176Z,27.08
2022-09-06T15:31:50.326Z,27.09
2022-09-06T15:34:19.311Z,26.95
2022-09-06T15:36:46.190Z,26.89
2022-09-06T15:39:14.142Z,26.75
2022-09-06T15:41:41.596Z,26.66
2022-09-06T15:44:14.862Z,26.61
2022-09-06T15:46:51.953Z,26.64
2022-09-06T15:49:28.929Z,26.58
2022-09-06T15:52:00.738Z,26.42
2022-09-06T15:54:46.945Z,26.55
2022-09-06T15:57:16.185Z,26.46
2022-09-06T15:59:43.025Z,26.48
2022-09-06T16:02:10.251Z,26.28
2022-09-06T16:04:37.218Z,26.44
2022-09-06T16:07:04.411Z,26.44
2022-09-06T16:09:31.783Z,26.43
2022-09-06T16:11:58.635Z,26.55
2022-09-06T16:14:25.633Z,26.44
2022-09-06T16:16:54.645Z,26.48
2022-09-06T16:19:21.600Z,27.44
2022-09-06T16:21:49.130Z,29.54
2022-09-06T16:24:18.527Z,28.88
2022-09-06T16:26:49.030Z,28.55
2022-09-06T16:29:18.358Z,28.26
2022-09-06T16:31:46.363Z,27.93
2022-09-06T16:34:14.559Z,27.83
2022-09-06T16:36:41.625Z,27.69
2022-09-06T16:39:08.884Z,27.45
2022-09-06T16:41:46.734Z,27.49
2022-09-06T16:44:18.129Z,27.34
2022-09-06T16:46:47.614Z,27.21
2022-09-06T16:49:17.104Z,27.09
2022-09-06T16:51:44.426Z,27.04
2022-09-06T16:54:11.266Z,26.96
2022-09-06T16:56:38.956Z,26.87
2022-09-06T16:59:08.786Z,26.93
2022-09-06T17:01:37.591Z,27.05
2022-09-06T17:04:05.708Z,27.09
2022-09-06T17:06:34.118Z,27.03
2022-09-06T17:09:01.036Z,26.89
2022-09-06T17:11:29.275Z,26.72
2022-09-06T17:13:57.505Z,26.78
2022-09-06T17:16:43.851Z,26.73
2022-09-06T17:19:11.937Z,26.69
2022-09-06T17:21:40.250Z,26.47
2022-09-06T17:24:09.640Z,26.41
2022-09-06T17:26:39.122Z,26.49
2022-09-06T17:29:07.148Z,26.30
2022-09-06T17:31:34.839Z,26.07
2022-09-06T17:34:01.860Z,26.07
2022-09-06T17:36:31.641Z,26.05
2022-09-06T17:39:15.107Z,25.99
2022-09-06T17:41:50.356Z,25.79
2022-09-06T17:44:25.278Z,25.89
2022-09-06T17:47:11.299Z,25.71
2022-09-06T17:49:39.357Z,25.52
2022-09-06T17:52:06.182Z,25.43
2022-09-06T17:54:33.370Z,25.42
2022-09-06T17:57:00.255Z,25.42
2022-09-06T17:59:30.417Z,25.27
2022-09-06T18:01:59.766Z,25.09
2022-09-06T18:04:26.619Z,25.19
2022-09-06T18:06:53.422Z,25.08
2022-09-06T18:09:21.462Z,24.96
2022-09-06T18:11:48.367Z,24.94
2022-09-06T18:14:20.518Z,24.67
2022-09-06T18:20:43.610Z,24.54
2022-09-06T18:23:15.634Z,24.49
2022-09-06T18:25:44.139Z,24.47
2022-09-06T18:28:36.507Z,24.29
2022-09-06T18:31:19.529Z,24.45
2022-09-06T18:33:46.941Z,24.43
2022-09-06T18:36:15.540Z,24.38
2022-09-06T18:38:43.081Z,24.23
2022-09-06T18:41:33.126Z,24.22
2022-09-06T18:44:04.362Z,24.10
2022-09-06T18:46:34.025Z,24.18
2022-09-06T18:49:01.387Z,24.09
2022-09-06T18:51:28.538Z,23.97
2022-09-06T18:54:04.513Z,23.98
2022-09-06T18:56:31.410Z,23.65
2022-09-06T18:59:02.643Z,23.90
2022-09-06T19:01:30.512Z,23.78
2022-09-06T19:03:59.098Z,23.80
2022-09-06T19:06:28.820Z,23.76
2022-09-06T19:09:00.084Z,23.65
2022-09-06T19:11:27.484Z,23.58
2022-09-06T19:13:56.498Z,23.44
2022-09-06T19:16:25.467Z,23.46
2022-09-06T19:18:55.993Z,23.15
2022-09-06T19:21:25.380Z,23.27
2022-09-06T19:24:02.331Z,23.26
2022-09-06T19:26:33.121Z,23.19
2022-09-06T19:29:03.545Z,23.16
2022-09-06T19:31:59.427Z,23.12
2022-09-06T19:34:26.276Z,23.06
2022-09-06T19:36:55.208Z,23.07
2022-09-06T19:39:22.110Z,22.79
2022-09-06T19:41:48.996Z,22.90
2022-09-06T19:44:16.938Z,22.76
2022-09-06T19:46:46.164Z,22.71
2022-09-06T19:49:16.857Z,22.79
2022-09-06T19:51:48.645Z,22.75
2022-09-06T19:54:16.771Z,22.60
2022-09-06T19:56:44.801Z,22.51
2022-09-06T19:59:13.430Z,22.73
2022-09-06T20:01:42.693Z,22.65
2022-09-06T20:04:11.920Z,22.55
2022-09-06T20:06:39.214Z,22.59
2022-09-06T20:09:09.104Z,22.61
2022-09-06T20:11:37.833Z,22.36
2022-09-06T20:14:06.449Z,22.41
2022-09-06T20:16:35.241Z,22.31
2022-09-06T20:19:04.123Z,22.30
2022-09-06T20:21:31.339Z,22.31
2022-09-06T20:23:59.706Z,22.39
2022-09-06T20:26:29.164Z,22.17
2022-09-06T20:29:01.901Z,22.25
2022-09-06T20:31:30.635Z,22.13
2022-09-06T20:34:00.986Z,22.29
2022-09-06T20:36:28.358Z,21.79
2022-09-06T20:38:55.274Z,22.21
2022-09-06T20:41:24.622Z,22.24
2022-09-06T20:43:53.655Z,22.12
2022-09-06T20:46:24.269Z,22.04
2022-09-06T20:48:52.008Z,21.87
2022-09-06T20:51:21.653Z,22.00
2022-09-06T20:53:59.200Z,21.98
2022-09-06T20:56:47.484Z,21.89
2022-09-06T20:59:14.474Z,21.91
2022-09-06T21:01:45.120Z,21.69
2022-09-06T21:04:14.728Z,21.85
2022-09-06T21:06:41.884Z,21.88
2022-09-06T21:09:14.440Z,21.81
2022-09-06T21:11:42.687Z,21.72
2022-09-06T21:14:10.260Z,21.86
2022-09-06T21:16:38.746Z,21.87
2022-09-06T21:19:08.411Z,21.74
2022-09-06T21:21:35.927Z,21.86
2022-09-06T21:24:06.289Z,21.84
2022-09-06T21:26:33.914Z,21.81
2022-09-06T21:29:00.973Z,21.78
2022-09-06T21:31:33.616Z,21.82
2022-09-06T21:34:07.324Z,21.58
2022-09-06T21:36:38.250Z,21.75
2022-09-06T21:39:09.522Z,21.59
2022-09-06T21:41:39.014Z,21.79
2022-09-06T21:44:07.948Z,21.57
2022-09-06T21:46:38.196Z,21.72
2022-09-06T21:49:11.861Z,21.39
2022-09-06T21:51:39.243Z,21.70
2022-09-06T21:54:06.743Z,21.68
2022-09-06T21:56:36.229Z,21.69
2022-09-06T21:59:04.664Z,21.72
2022-09-06T22:01:34.544Z,21.71
2022-09-06T22:04:02.328Z,21.69
2022-09-06T22:06:31.570Z,21.70
2022-09-06T22:09:02.085Z,21.66
2022-09-06T22:11:32.312Z,21.58
2022-09-06T22:14:05.421Z,21.41
2022-09-06T22:16:35.568Z,21.66
2022-09-06T22:19:04.850Z,21.42
2022-09-06T22:21:32.953Z,21.48
2022-09-06T22:24:05.597Z,21.48
2022-09-06T22:26:34.967Z,21.57
2022-09-06T22:29:06.835Z,21.45
2022-09-06T22:31:35.306Z,21.54
2022-09-06T22:34:02.429Z,21.52
2022-09-06T22:36:29.554Z,21.51
2022-09-06T22:38:57.563Z,21.36
2022-09-06T22:41:27.055Z,21.43
2022-09-06T22:43:54.208Z,21.44
2022-09-06T22:46:21.416Z,20.86
2022-09-06T22:48:49.239Z,21.44
2022-09-06T22:51:16.170Z,21.20
2022-09-06T22:53:43.004Z,21.15
2022-09-06T22:56:09.939Z,21.17
2022-09-06T22:58:36.966Z,21.18
2022-09-06T23:01:10.339Z,21.25
2022-09-06T23:03:37.804Z,21.08
2022-09-06T23:06:05.587Z,20.93
2022-09-06T23:08:35.141Z,21.17
2022-09-06T23:11:11.655Z,21.09
2022-09-06T23:13:38.796Z,21.00
2022-09-06T23:16:08.100Z,21.00
2022-09-06T23:18:35.274Z,20.92
2022-09-06T23:21:07.347Z,21.01
2022-09-06T23:23:35.790Z,20.83
2022-09-06T23:26:10.990Z,20.84
2022-09-06T23:28:38.757Z,20.98
2022-09-06T23:31:11.979Z,20.89
2022-09-06T23:33:40.386Z,20.92
2022-09-06T23:36:11.215Z,20.82
2022-09-06T23:38:40.718Z,20.77
2022-09-06T23:41:09.848Z,20.69
2022-09-06T23:43:37.713Z,20.64
2022-09-06T23:46:05.217Z,20.67
2022-09-06T23:48:32.310Z,20.40
2022-09-06T23:50:59.785Z,20.75
2022-09-06T23:53:26.598Z,20.55
2022-09-06T23:55:53.449Z,20.68
2022-09-06T23:58:20.664Z,20.56
